createdAt,value
2023-11-23T00:01:18.829Z,59.43
2023-11-23T00:04:22.453Z,59.60
2023-11-23T00:07:25.190Z,59.40
2023-11-23T00:10:29.728Z,60.10
2023-11-23T00:13:32.334Z,60.36
2023-11-23T00:16:35.490Z,59.80
2023-11-23T00:19:38.080Z,60.10
2023-11-23T00:22:41.193Z,60.02
2023-11-23T00:25:45.685Z,60.45
2023-11-23T00:28:48.951Z,60.19
2023-11-23T00:31:51.548Z,60.65
2023-11-23T00:34:54.763Z,60.88
2023-11-23T00:37:57.418Z,60.36
2023-11-23T00:41:02.571Z,59.83
2023-11-23T00:44:05.867Z,59.97
2023-11-23T00:47:12.937Z,60.53
2023-11-23T00:50:15.724Z,60.94
2023-11-23T00:53:18.958Z,61.05
2023-11-23T00:56:21.838Z,60.72
2023-11-23T00:59:25.082Z,60.88
2023-11-23T01:02:28.557Z,60.25
2023-11-23T01:05:32.752Z,60.55
2023-11-23T01:08:35.356Z,60.46
2023-11-23T01:11:39.220Z,60.30
2023-11-23T01:14:41.970Z,60.29
2023-11-23T01:17:45.259Z,60.56
2023-11-23T01:20:47.916Z,60.91
2023-11-23T01:23:51.001Z,60.73
2023-11-23T01:26:53.678Z,60.15
2023-11-23T01:29:57.440Z,60.38
2023-11-23T01:33:00.124Z,59.83
2023-11-23T01:36:03.724Z,60.11
2023-11-23T01:39:06.380Z,59.83
2023-11-23T01:42:09.571Z,59.94
2023-11-23T01:45:13.231Z,59.53
2023-11-23T01:48:17.236Z,59.69
2023-11-23T01:51:19.972Z,60.61
2023-11-23T01:54:24.385Z,60.47
2023-11-23T01:57:33.385Z,60.59
2023-11-23T02:00:38.345Z,61.00
2023-11-23T02:03:41.400Z,60.83
2023-11-23T02:06:44.407Z,61.10
2023-11-23T02:09:47.271Z,61.72
2023-11-23T02:12:51.614Z,61.28
2023-11-23T02:15:54.604Z,61.18
2023-11-23T02:18:57.479Z,61.44
2023-11-23T02:22:00.371Z,60.74
2023-11-23T02:25:05.284Z,61.08
2023-11-23T02:28:09.468Z,61.11
2023-11-23T02:31:12.413Z,60.73
2023-11-23T02:34:16.096Z,60.54
2023-11-23T02:37:19.337Z,60.91
2023-11-23T02:40:22.440Z,60.47
2023-11-23T02:43:26.852Z,60.74
2023-11-23T02:46:29.989Z,60.43
2023-11-23T02:49:33.359Z,60.62
2023-11-23T02:52:36.338Z,60.66
2023-11-23T02:55:39.244Z,59.65
2023-11-23T02:58:43.049Z,60.05
2023-11-23T03:01:45.993Z,60.15
2023-11-23T03:04:49.223Z,59.64
2023-11-23T03:07:53.356Z,60.02
2023-11-23T03:10:56.278Z,59.51
2023-11-23T03:13:59.532Z,60.05
2023-11-23T03:17:04.913Z,59.55
2023-11-23T03:20:10.192Z,59.26
2023-11-23T03:23:13.432Z,59.17
2023-11-23T03:26:17.639Z,59.02
2023-11-23T03:29:20.894Z,59.09
2023-11-23T03:32:26.545Z,58.88
2023-11-23T03:35:29.445Z,59.26
2023-11-23T03:38:32.694Z,59.24
2023-11-23T03:41:35.650Z,59.77
2023-11-23T03:44:38.575Z,59.88
2023-11-23T03:47:41.451Z,59.44
2023-11-23T03:50:44.613Z,59.50
2023-11-23T03:53:47.559Z,58.41
2023-11-23T03:56:50.639Z,59.33
2023-11-23T03:59:53.460Z,60.63
2023-11-23T04:02:57.381Z,59.28
2023-11-23T04:06:00.541Z,58.71
2023-11-23T04:09:04.562Z,59.08
2023-11-23T04:12:08.040Z,58.83
2023-11-23T04:15:11.299Z,59.20
2023-11-23T04:18:14.209Z,59.31
2023-11-23T04:21:17.478Z,59.91
2023-11-23T04:24:20.468Z,59.94
2023-11-23T04:27:23.368Z,60.09
2023-11-23T04:30:26.489Z,60.61
2023-11-23T04:33:29.395Z,60.43
2023-11-23T04:36:32.247Z,60.92
2023-11-23T04:39:35.576Z,60.51
2023-11-23T04:42:38.582Z,60.93
2023-11-23T04:45:42.323Z,60.99
2023-11-23T04:48:45.247Z,60.56
2023-11-23T04:51:48.119Z,60.98
2023-11-23T04:54:51.056Z,61.25
2023-11-23T04:57:53.890Z,60.33
2023-11-23T05:00:56.833Z,60.60
2023-11-23T05:04:03.003Z,60.92
2023-11-23T05:07:07.971Z,60.75
2023-11-23T05:10:11.064Z,60.88
2023-11-23T05:13:14.638Z,61.02
2023-11-23T05:16:17.725Z,60.30
2023-11-23T05:19:31.827Z,60.10
2023-11-23T05:22:47.063Z,59.95
2023-11-23T05:25:50.662Z,60.11
2023-11-23T05:28:53.408Z,60.18
2023-11-23T05:31:56.165Z,59.72
2023-11-23T05:34:58.999Z,59.91
2023-11-23T05:38:02.646Z,59.19
2023-11-23T05:41:05.675Z,59.71
2023-11-23T05:44:08.658Z,58.41
2023-11-23T05:47:11.966Z,58.42
2023-11-23T05:50:14.871Z,59.40
2023-11-23T05:53:17.718Z,58.64
2023-11-23T05:56:20.810Z,59.06
2023-11-23T05:59:23.957Z,59.29
2023-11-23T06:02:27.562Z,59.04
2023-11-23T06:05:32.098Z,59.06
2023-11-23T06:08:36.105Z,59.09
2023-11-23T06:11:39.399Z,58.90
2023-11-23T06:14:42.303Z,58.72
2023-11-23T06:17:45.602Z,58.72
2023-11-23T06:20:48.519Z,58.57
2023-11-23T06:23:52.828Z,58.64
2023-11-23T06:26:55.541Z,58.82
2023-11-23T06:29:59.024Z,57.91
2023-11-23T06:33:01.778Z,58.19
2023-11-23T06:36:05.237Z,58.18
2023-11-23T06:39:10.566Z,57.91
2023-11-23T06:42:13.995Z,58.27
2023-11-23T06:45:17.834Z,57.74
2023-11-23T06:48:21.217Z,56.95
2023-11-23T06:51:24.073Z,57.44
2023-11-23T06:54:27.288Z,57.79
2023-11-23T06:57:29.823Z,58.29
2023-11-23T07:00:33.562Z,57.94
2023-11-23T07:03:37.671Z,57.99
2023-11-23T07:06:41.504Z,58.18
2023-11-23T07:09:44.102Z,58.39
2023-11-23T07:12:48.313Z,58.55
2023-11-23T07:15:51.042Z,58.17
2023-11-23T07:18:54.315Z,58.35
2023-11-23T07:21:57.597Z,58.52
2023-11-23T07:25:01.462Z,58.55
2023-11-23T07:28:05.244Z,58.30
2023-11-23T07:31:10.534Z,58.42
2023-11-23T07:34:13.167Z,57.82
2023-11-23T07:37:16.900Z,57.48
2023-11-23T07:40:19.477Z,57.43
2023-11-23T07:43:22.693Z,57.13
2023-11-23T07:46:26.161Z,57.42
2023-11-23T07:49:29.326Z,57.47
2023-11-23T07:52:32.420Z,58.62
2023-11-23T07:55:36.035Z,58.87
2023-11-23T07:58:38.643Z,58.27
2023-11-23T08:01:41.801Z,58.31
2023-11-23T08:04:45.542Z,58.15
2023-11-23T08:07:51.329Z,58.55
2023-11-23T08:10:54.259Z,59.20
2023-11-23T08:13:57.186Z,58.87
2023-11-23T08:17:00.261Z,58.02
2023-11-23T08:20:08.201Z,57.21
2023-11-23T08:23:13.856Z,55.30
2023-11-23T08:26:17.605Z,51.73
2023-11-23T08:29:20.568Z,47.33
2023-11-23T08:32:23.865Z,44.95
2023-11-23T08:35:27.078Z,43.69
2023-11-23T08:38:30.273Z,41.27
2023-11-23T08:41:33.421Z,39.64
2023-11-23T08:44:37.191Z,36.74
2023-11-23T08:47:40.250Z,34.47
2023-11-23T08:50:43.339Z,35.32
2023-11-23T08:53:46.196Z,32.83
2023-11-23T08:56:48.964Z,32.54
2023-11-23T08:59:52.231Z,33.87
2023-11-23T09:02:55.660Z,36.17
2023-11-23T09:05:59.674Z,36.13
2023-11-23T09:09:03.086Z,35.49
2023-11-23T09:12:06.603Z,35.82
2023-11-23T09:15:11.416Z,35.32
2023-11-23T09:18:15.303Z,35.47
2023-11-23T09:21:18.449Z,34.67
2023-11-23T09:24:23.174Z,34.70
2023-11-23T09:27:26.290Z,34.38
2023-11-23T09:30:29.362Z,34.37
2023-11-23T09:33:32.797Z,34.71
2023-11-23T09:36:35.881Z,36.08
2023-11-23T09:39:39.841Z,38.06
2023-11-23T09:42:42.978Z,38.90
2023-11-23T09:45:46.696Z,39.77
2023-11-23T09:48:50.408Z,40.93
2023-11-23T09:51:53.611Z,42.79
2023-11-23T09:54:58.021Z,44.68
2023-11-23T09:58:04.645Z,45.78
2023-11-23T10:01:10.542Z,46.49
2023-11-23T10:04:13.890Z,47.28
2023-11-23T10:07:21.512Z,47.71
2023-11-23T10:10:28.130Z,48.31
2023-11-23T10:13:30.827Z,48.87
2023-11-23T10:16:34.339Z,48.84
2023-11-23T10:19:37.517Z,49.59
2023-11-23T10:22:48.785Z,49.60
2023-11-23T10:25:52.466Z,50.05
2023-11-23T10:28:56.608Z,50.14
2023-11-23T10:32:02.851Z,51.18
2023-11-23T10:35:08.210Z,51.31
2023-11-23T10:38:13.184Z,50.91
2023-11-23T10:41:17.563Z,50.34
2023-11-23T10:44:21.241Z,50.22
2023-11-23T10:47:27.771Z,51.79
2023-11-23T10:50:31.144Z,50.59
2023-11-23T10:53:34.597Z,48.94
2023-11-23T10:56:38.023Z,47.76
2023-11-23T10:59:45.496Z,47.54
2023-11-23T11:02:49.181Z,46.89
2023-11-23T11:05:54.606Z,46.31
2023-11-23T11:08:57.247Z,45.47
2023-11-23T11:12:03.505Z,46.33
2023-11-23T11:15:07.855Z,47.46
2023-11-23T11:18:11.824Z,47.19
2023-11-23T11:21:18.369Z,46.55
2023-11-23T11:24:23.246Z,44.90
2023-11-23T11:27:30.428Z,45.90
2023-11-23T11:30:38.849Z,45.09
2023-11-23T11:33:41.821Z,44.44
2023-11-23T11:36:45.818Z,43.17
2023-11-23T11:39:48.899Z,42.80
2023-11-23T11:42:52.091Z,42.66
2023-11-23T11:45:54.930Z,41.78
2023-11-23T11:49:01.841Z,41.96
2023-11-23T11:52:07.374Z,41.67
2023-11-23T11:55:10.714Z,41.23
2023-11-23T11:58:13.340Z,40.43
2023-11-23T12:01:19.460Z,40.30
2023-11-23T12:04:22.887Z,39.77
2023-11-23T12:07:26.552Z,39.98
2023-11-23T12:10:39.803Z,38.88
2023-11-23T12:13:42.672Z,38.98
2023-11-23T12:16:47.160Z,38.76
2023-11-23T12:19:54.088Z,39.03
2023-11-23T12:23:00.827Z,39.36
2023-11-23T12:26:03.852Z,39.20
2023-11-23T12:29:06.771Z,38.55
2023-11-23T12:32:09.785Z,38.42
2023-11-23T12:35:12.693Z,38.29
2023-11-23T12:38:15.774Z,39.59
2023-11-23T12:41:20.619Z,39.07
2023-11-23T12:44:23.481Z,40.39
2023-11-23T12:47:27.974Z,39.99
2023-11-23T12:50:32.519Z,39.53
2023-11-23T12:53:35.565Z,38.99
2023-11-23T12:56:39.218Z,39.16
2023-11-23T12:59:42.079Z,39.67
2023-11-23T13:02:45.120Z,41.47
2023-11-23T13:05:50.924Z,43.23
2023-11-23T13:08:53.943Z,44.92
2023-11-23T13:11:58.145Z,45.85
2023-11-23T13:15:01.185Z,47.09
2023-11-23T13:18:05.780Z,47.70
2023-11-23T13:21:09.188Z,48.69
2023-11-23T13:24:13.445Z,49.79
2023-11-23T13:27:17.429Z,49.76
2023-11-23T13:30:20.636Z,49.64
2023-11-23T13:33:24.655Z,50.03
2023-11-23T13:36:30.520Z,49.95
2023-11-23T13:39:36.937Z,50.72
2023-11-23T13:42:42.519Z,50.74
2023-11-23T13:45:50.702Z,50.96
2023-11-23T13:48:53.887Z,51.54
2023-11-23T13:51:58.360Z,52.44
2023-11-23T13:55:01.326Z,52.75
2023-11-23T13:58:06.633Z,54.05
2023-11-23T14:01:12.766Z,56.59
2023-11-23T14:04:16.216Z,57.56
2023-11-23T14:07:19.452Z,58.55
2023-11-23T14:10:22.855Z,59.72
2023-11-23T14:13:26.774Z,60.79
2023-11-23T14:16:36.066Z,61.16
2023-11-23T14:19:39.521Z,61.58
2023-11-23T14:22:45.499Z,62.42
2023-11-23T14:25:48.326Z,62.37
2023-11-23T14:28:51.845Z,62.90
2023-11-23T14:31:55.114Z,62.65
2023-11-23T14:34:58.708Z,62.86
2023-11-23T14:38:03.485Z,61.90
2023-11-23T14:41:09.447Z,62.07
2023-11-23T14:44:12.328Z,61.40
2023-11-23T14:47:15.459Z,61.70
2023-11-23T14:50:18.506Z,62.29
2023-11-23T14:53:28.196Z,62.51
2023-11-23T14:56:30.857Z,62.44
2023-11-23T14:59:36.958Z,62.47
2023-11-23T15:02:42.418Z,62.61
2023-11-23T15:05:47.010Z,62.83
2023-11-23T15:08:54.267Z,62.94
2023-11-23T15:12:01.076Z,63.35
2023-11-23T15:15:03.943Z,63.25
2023-11-23T15:18:08.878Z,63.31
2023-11-23T15:21:13.234Z,63.57
2023-11-23T15:24:19.276Z,63.93
2023-11-23T15:27:23.208Z,63.68
2023-11-23T15:30:26.500Z,63.69
2023-11-23T15:33:31.019Z,63.49
2023-11-23T15:36:40.250Z,63.55
2023-11-23T15:39:46.112Z,63.75
2023-11-23T15:42:49.333Z,63.42
2023-11-23T15:45:53.217Z,63.14
2023-11-23T15:48:56.442Z,63.35
2023-11-23T15:51:59.465Z,63.63
2023-11-23T15:55:05.871Z,63.87
2023-11-23T15:58:09.983Z,64.05
2023-11-23T16:01:13.594Z,63.60
2023-11-23T16:04:16.901Z,63.53
2023-11-23T16:07:19.939Z,64.17
2023-11-23T16:10:22.881Z,64.27
2023-11-23T16:13:26.025Z,64.61
2023-11-23T16:16:28.948Z,64.50
2023-11-23T16:19:31.825Z,64.41
2023-11-23T16:22:34.687Z,64.21
2023-11-23T16:25:37.559Z,64.71
2023-11-23T16:28:40.507Z,64.81
2023-11-23T16:31:46.222Z,64.69
2023-11-23T16:34:49.679Z,64.72
2023-11-23T16:37:52.768Z,64.65
2023-11-23T16:40:57.865Z,64.68
2023-11-23T16:44:00.861Z,64.57
2023-11-23T16:47:04.441Z,64.99
2023-11-23T16:50:10.800Z,64.93
2023-11-23T16:53:14.453Z,65.18
2023-11-23T16:56:17.610Z,64.94
2023-11-23T16:59:21.362Z,65.04
2023-11-23T17:02:24.770Z,65.24
2023-11-23T17:05:28.259Z,65.09
2023-11-23T17:08:30.985Z,65.51
2023-11-23T17:11:34.114Z,65.53
2023-11-23T17:14:37.342Z,65.78
2023-11-23T17:17:46.178Z,66.24
2023-11-23T17:20:49.191Z,66.22
2023-11-23T17:23:52.667Z,65.79
2023-11-23T17:26:55.636Z,66.32
2023-11-23T17:29:58.685Z,66.22
2023-11-23T17:36:06.525Z,66.83
2023-11-23T17:39:16.873Z,66.63
2023-11-23T17:42:20.919Z,66.61
2023-11-23T17:45:24.505Z,66.34
2023-11-23T17:48:28.824Z,66.24
2023-11-23T17:51:31.804Z,66.44
2023-11-23T17:54:34.676Z,66.58
2023-11-23T17:57:37.875Z,66.57
2023-11-23T18:00:40.994Z,67.16
2023-11-23T18:03:44.475Z,67.36
2023-11-23T18:06:46.973Z,67.54
2023-11-23T18:09:53.115Z,67.79
2023-11-23T18:12:57.864Z,67.96
2023-11-23T18:16:00.966Z,67.77
2023-11-23T18:19:03.915Z,67.55
2023-11-23T18:22:08.832Z,67.62
2023-11-23T18:25:11.564Z,67.59
2023-11-23T18:28:14.730Z,67.93
2023-11-23T18:31:19.805Z,68.07
2023-11-23T18:34:23.100Z,67.87
2023-11-23T18:37:25.930Z,68.10
2023-11-23T18:40:29.136Z,68.03
2023-11-23T18:43:31.924Z,68.33
2023-11-23T18:46:35.056Z,68.31
2023-11-23T18:49:39.605Z,68.26
2023-11-23T18:52:43.215Z,68.20
2023-11-23T18:55:48.316Z,68.10
2023-11-23T18:58:51.561Z,68.55
2023-11-23T19:01:55.768Z,68.54
2023-11-23T19:05:00.539Z,68.51
2023-11-23T19:08:03.549Z,68.52
2023-11-23T19:11:07.403Z,68.37
2023-11-23T19:14:10.179Z,68.60
2023-11-23T19:17:14.737Z,68.68
2023-11-23T19:20:18.759Z,68.46
2023-11-23T19:23:23.340Z,68.58
2023-11-23T19:26:27.077Z,68.94
2023-11-23T19:29:38.936Z,68.91
2023-11-23T19:32:52.712Z,69.50
2023-11-23T19:35:56.517Z,69.66
2023-11-23T19:38:59.806Z,69.86
2023-11-23T19:42:05.111Z,70.02
2023-11-23T19:45:08.365Z,70.11
2023-11-23T19:48:12.302Z,70.48
2023-11-23T19:51:22.955Z,70.68
2023-11-23T19:54:27.146Z,70.87
2023-11-23T19:57:29.775Z,70.85
2023-11-23T20:00:33.305Z,71.17
2023-11-23T20:03:36.554Z,71.38
2023-11-23T20:06:39.508Z,71.18
2023-11-23T20:09:44.283Z,71.17
2023-11-23T20:12:47.381Z,70.76
2023-11-23T20:15:50.626Z,71.00
2023-11-23T20:18:53.632Z,70.49
2023-11-23T20:21:56.970Z,70.38
2023-11-23T20:25:00.017Z,70.20
2023-11-23T20:28:03.108Z,70.43
2023-11-23T20:31:06.400Z,70.49
2023-11-23T20:34:09.409Z,70.39
2023-11-23T20:37:12.366Z,70.42
2023-11-23T20:40:15.475Z,70.43
2023-11-23T20:43:20.452Z,69.96
2023-11-23T20:46:24.614Z,69.49
2023-11-23T20:49:27.651Z,69.31
2023-11-23T20:52:30.522Z,69.90
2023-11-23T20:55:33.774Z,69.14
2023-11-23T20:58:37.349Z,68.69
2023-11-23T21:01:40.936Z,69.51
2023-11-23T21:04:45.263Z,69.89
2023-11-23T21:07:48.498Z,69.64
2023-11-23T21:10:51.510Z,69.55
2023-11-23T21:13:54.413Z,69.59
2023-11-23T21:16:57.362Z,69.36
2023-11-23T21:20:00.312Z,68.69
2023-11-23T21:23:04.035Z,68.77
2023-11-23T21:26:07.373Z,68.60
2023-11-23T21:29:13.321Z,68.32
2023-11-23T21:32:16.856Z,67.80
2023-11-23T21:35:22.432Z,67.92
2023-11-23T21:38:25.375Z,68.03
2023-11-23T21:41:28.290Z,68.01
2023-11-23T21:44:31.493Z,67.81
2023-11-23T21:47:35.483Z,67.84
2023-11-23T21:50:39.668Z,67.40
2023-11-23T21:53:42.727Z,67.20
2023-11-23T21:56:46.334Z,67.17
2023-11-23T21:59:49.054Z,67.05
2023-11-23T22:02:51.911Z,66.77
2023-11-23T22:05:54.843Z,66.85
2023-11-23T22:08:57.857Z,66.94
2023-11-23T22:12:00.711Z,67.13
2023-11-23T22:15:03.919Z,67.03
2023-11-23T22:18:07.157Z,66.04
2023-11-23T22:21:10.821Z,66.44
2023-11-23T22:24:17.647Z,66.31
2023-11-23T22:27:21.614Z,66.16
2023-11-23T22:30:24.862Z,65.44
2023-11-23T22:33:29.044Z,64.43
2023-11-23T22:36:32.284Z,64.74
2023-11-23T22:39:35.427Z,64.54
2023-11-23T22:42:39.615Z,64.77
2023-11-23T22:45:43.173Z,64.58
2023-11-23T22:48:46.146Z,65.04
2023-11-23T22:51:49.627Z,65.01
2023-11-23T22:54:53.108Z,65.64
2023-11-23T22:57:56.141Z,65.46
2023-11-23T23:00:59.308Z,65.24
2023-11-23T23:04:02.311Z,65.09
2023-11-23T23:07:07.225Z,65.46
2023-11-23T23:10:10.163Z,65.14
2023-11-23T23:13:14.274Z,65.35
2023-11-23T23:16:17.280Z,65.37
2023-11-23T23:19:20.191Z,65.86
2023-11-23T23:22:28.785Z,66.31
2023-11-23T23:25:32.702Z,66.60
2023-11-23T23:28:35.812Z,67.16
2023-11-23T23:31:40.033Z,67.49
2023-11-23T23:34:43.002Z,68.47
2023-11-23T23:37:47.137Z,68.90
2023-11-23T23:40:51.778Z,69.29
2023-11-23T23:43:54.871Z,69.64
2023-11-23T23:46:57.815Z,69.71
2023-11-23T23:50:00.710Z,70.06
2023-11-23T23:53:03.618Z,70.20
2023-11-23T23:56:08.055Z,70.77
2023-11-23T23:59:11.562Z,70.98
